Time;durP1;ratioP1;P1;durP2;ratioP2;P2;SDS_P1;SDS_P2;PMS_P1;PMS_P2;Temp;Humidity;BMP_temperature;BMP_pressure;BME280_temperature;BME280_humidity;BME280_pressure;Samples;Min_cycle;Max_cycle;Signal;HPM_P1;HPM_P2
2021/12/20 00:00:53;;;;;;;20.03;6.50;;;1.40;99.90;;;;;;5049610;28;20259;-70
2021/12/20 00:03:19;;;;;;;15.33;6.37;;;1.50;99.90;;;;;;5048102;28;20217;-70
2021/12/20 00:05:44;;;;;;;18.80;6.23;;;1.40;99.90;;;;;;5044794;28;20197;-70
2021/12/20 00:08:10;;;;;;;10.83;5.43;;;1.40;99.90;;;;;;5047451;28;20424;-70
2021/12/20 00:10:36;;;;;;;14.50;6.90;;;1.40;99.90;;;;;;5052976;28;20182;-70
2021/12/20 00:13:02;;;;;;;22.43;6.53;;;1.40;99.90;;;;;;5047273;28;20190;-70
2021/12/20 00:15:27;;;;;;;20.43;7.70;;;1.40;99.90;;;;;;5047128;28;20895;-70
2021/12/20 00:17:53;;;;;;;20.33;6.30;;;1.40;99.90;;;;;;5047149;28;20435;-70
2021/12/20 00:20:20;;;;;;;14.67;6.40;;;1.40;99.90;;;;;;5047188;28;20549;-70
2021/12/20 00:22:45;;;;;;;13.13;6.70;;;1.40;99.90;;;;;;5047521;28;20182;-70
2021/12/20 00:25:11;;;;;;;15.77;6.27;;;1.40;99.90;;;;;;5046564;28;20423;-70
2021/12/20 00:27:37;;;;;;;18.30;6.77;;;1.40;99.90;;;;;;5046641;28;20316;-70
2021/12/20 00:30:10;;;;;;;20.47;7.37;;;1.40;99.90;;;;;;5049061;28;20181;-70
2021/12/20 00:32:36;;;;;;;12.97;5.83;;;1.40;99.90;;;;;;5052650;28;20527;-70
2021/12/20 00:35:03;;;;;;;13.27;5.47;;;1.40;99.90;;;;;;5054275;28;20458;-70
2021/12/20 00:40:20;;;;;;;15.83;6.17;;;1.40;99.90;;;;;;5054115;28;20430;-70
2021/12/20 00:42:50;;;;;;;17.30;7.03;;;1.40;99.90;;;;;;5050555;28;20766;-70
2021/12/20 00:45:18;;;;;;;23.80;7.90;;;1.40;99.90;;;;;;5057569;28;20431;-70
2021/12/20 00:47:44;;;;;;;13.63;6.20;;;1.40;99.90;;;;;;5050237;28;20506;-70
2021/12/20 00:50:13;;;;;;;19.13;7.73;;;1.40;99.90;;;;;;5054553;28;20449;-70
2021/12/20 00:52:40;;;;;;;23.30;8.50;;;1.40;99.90;;;;;;5054789;28;20471;-70
2021/12/20 00:55:07;;;;;;;17.53;5.47;;;1.40;99.90;;;;;;5049750;28;20435;-70
2021/12/20 00:57:32;;;;;;;18.17;5.27;;;1.40;99.90;;;;;;5051217;28;20435;-70
2021/12/20 00:59:58;;;;;;;18.13;6.20;;;1.40;99.90;;;;;;5051611;28;20873;-70
2021/12/20 01:02:24;;;;;;;16.23;7.93;;;1.40;99.90;;;;;;5050787;28;20649;-70
2021/12/20 01:04:49;;;;;;;19.10;7.63;;;1.50;99.90;;;;;;5052259;28;20268;-70
2021/12/20 01:07:15;;;;;;;21.50;6.53;;;1.50;99.90;;;;;;5051649;28;20213;-70
2021/12/20 01:09:41;;;;;;;19.30;7.47;;;1.50;99.90;;;;;;5052894;28;20186;-70
2021/12/20 01:12:14;;;;;;;22.10;6.00;;;1.40;99.90;;;;;;5052053;28;20861;-70
2021/12/20 01:14:40;;;;;;;21.90;6.67;;;1.40;99.90;;;;;;5053114;28;20189;-70
2021/12/20 01:17:05;;;;;;;17.43;7.30;;;1.50;99.90;;;;;;5052766;28;20424;-70
2021/12/20 01:19:36;;;;;;;20.27;6.90;;;1.50;99.90;;;;;;5049618;28;20197;-71
2021/12/20 01:22:03;;;;;;;16.07;7.27;;;1.50;99.90;;;;;;5052066;28;20298;-70
2021/12/20 01:24:29;;;;;;;19.43;7.60;;;1.60;99.90;;;;;;5052486;28;21170;-70
2021/12/20 01:26:55;;;;;;;18.87;6.93;;;1.60;99.90;;;;;;5052304;28;20467;-70
2021/12/20 01:29:21;;;;;;;15.73;6.30;;;1.60;99.90;;;;;;5054058;28;20190;-70
2021/12/20 01:31:46;;;;;;;13.90;6.60;;;1.60;99.90;;;;;;5054186;28;20190;-70
2021/12/20 01:34:12;;;;;;;15.53;6.50;;;1.60;99.90;;;;;;5053452;28;20182;-70
2021/12/20 01:36:38;;;;;;;22.27;7.97;;;1.60;99.90;;;;;;5053231;28;20177;-69
2021/12/20 01:39:04;;;;;;;17.27;7.63;;;1.70;99.90;;;;;;5054808;28;20650;-69
2021/12/20 01:41:30;;;;;;;12.57;6.63;;;1.60;99.90;;;;;;5056134;28;20235;-70
2021/12/20 01:43:56;;;;;;;20.63;8.10;;;1.60;99.90;;;;;;5050290;28;20436;-70
2021/12/20 01:46:23;;;;;;;15.90;6.90;;;1.60;99.90;;;;;;5052082;28;20468;-70
2021/12/20 01:48:49;;;;;;;14.40;7.60;;;1.50;99.90;;;;;;5049659;28;20173;-70
2021/12/20 01:51:34;;;;;;;19.60;7.07;;;1.50;99.90;;;;;;5049499;28;20761;-70
2021/12/20 01:53:59;;;;;;;23.00;8.50;;;1.50;99.90;;;;;;5057468;28;20416;-70
2021/12/20 01:56:26;;;;;;;20.37;7.40;;;1.60;99.90;;;;;;5054610;28;20455;-69
2021/12/20 01:58:52;;;;;;;15.10;6.43;;;1.60;99.90;;;;;;5057976;28;20177;-70
2021/12/20 02:01:19;;;;;;;17.00;6.70;;;1.60;99.90;;;;;;5039007;28;21142;-70
2021/12/20 02:03:49;;;;;;;13.83;6.00;;;1.60;99.90;;;;;;5055919;28;20205;-70
2021/12/20 02:06:28;;;;;;;12.83;6.67;;;1.50;99.90;;;;;;5056974;28;20468;-70
2021/12/20 02:08:56;;;;;;;13.13;7.03;;;1.50;99.90;;;;;;5049593;28;20421;-70
2021/12/20 02:11:22;;;;;;;16.50;7.00;;;1.50;99.90;;;;;;5049219;28;20428;-70
2021/12/20 02:13:49;;;;;;;15.43;7.37;;;1.50;99.90;;;;;;5049144;28;20442;-69
2021/12/20 02:16:15;;;;;;;16.70;7.87;;;1.50;99.90;;;;;;5051423;28;20419;-69
2021/12/20 02:18:41;;;;;;;21.93;7.70;;;1.50;99.90;;;;;;5054962;28;20937;-70
2021/12/20 02:21:07;;;;;;;21.87;9.23;;;1.60;99.90;;;;;;5048475;28;20471;-70
2021/12/20 02:23:33;;;;;;;18.50;8.73;;;1.60;99.90;;;;;;5055018;28;20454;-70
2021/12/20 02:26:00;;;;;;;22.80;9.77;;;1.60;99.90;;;;;;5058238;28;20208;-70
2021/12/20 02:28:26;;;;;;;19.17;7.10;;;1.50;99.90;;;;;;5052068;28;20178;-70
2021/12/20 02:38:59;;;;;;;19.57;7.27;;;1.60;99.90;;;;;;5044465;28;20455;-70
2021/12/20 02:41:31;;;;;;;23.07;6.60;;;1.60;99.90;;;;;;5049954;28;20622;-70
2021/12/20 02:44:03;;;;;;;27.40;8.17;;;1.60;99.90;;;;;;5057288;28;20482;-70
2021/12/20 02:49:03;;;;;;;24.10;8.20;;;1.50;99.90;;;;;;5048446;28;20485;-70
2021/12/20 02:51:28;;;;;;;17.30;8.10;;;1.50;99.90;;;;;;5048235;28;20420;-70
2021/12/20 02:53:57;;;;;;;18.20;8.80;;;1.40;99.90;;;;;;5055259;28;20423;-70
2021/12/20 02:56:23;;;;;;;20.80;8.03;;;1.50;99.90;;;;;;5056068;28;20195;-70
2021/12/20 02:58:48;;;;;;;15.40;7.60;;;1.50;99.90;;;;;;5048418;28;20444;-70
2021/12/20 03:01:14;;;;;;;23.03;7.73;;;1.50;99.90;;;;;;5054335;28;20225;-70
2021/12/20 03:03:40;;;;;;;18.33;7.90;;;1.50;99.90;;;;;;5052311;28;20555;-70
2021/12/20 03:06:10;;;;;;;24.00;8.23;;;1.50;99.90;;;;;;5047285;28;20209;-70
2021/12/20 03:08:37;;;;;;;22.13;7.10;;;1.50;99.90;;;;;;5047877;28;21236;-70
2021/12/20 03:11:03;;;;;;;17.17;8.27;;;1.50;99.90;;;;;;5048264;28;20924;-70
2021/12/20 03:13:29;;;;;;;20.83;6.93;;;1.60;99.90;;;;;;5050074;28;20427;-70
2021/12/20 03:15:55;;;;;;;23.43;7.93;;;1.50;99.90;;;;;;5047728;28;20192;-70
2021/12/20 03:18:20;;;;;;;18.33;8.60;;;1.50;99.90;;;;;;5048716;28;20189;-70
2021/12/20 03:20:46;;;;;;;18.93;8.30;;;1.50;99.90;;;;;;5047650;28;20273;-70
2021/12/20 03:23:12;;;;;;;20.20;8.30;;;1.50;99.90;;;;;;5055127;28;20181;-70
2021/12/20 03:25:37;;;;;;;19.60;7.60;;;1.40;99.90;;;;;;5047887;28;20720;-70
2021/12/20 03:28:03;;;;;;;20.47;8.93;;;1.40;99.90;;;;;;5055367;28;20233;-70
2021/12/20 03:30:29;;;;;;;23.50;9.50;;;1.40;99.90;;;;;;5052322;28;20181;-70
2021/12/20 03:32:55;;;;;;;23.30;9.10;;;1.40;99.90;;;;;;5054591;28;20461;-70
2021/12/20 03:35:20;;;;;;;21.07;8.30;;;1.40;99.90;;;;;;5048364;28;20181;-70
2021/12/20 03:37:46;;;;;;;20.83;8.50;;;1.40;99.90;;;;;;5052397;28;20193;-70
2021/12/20 03:40:12;;;;;;;23.50;9.43;;;1.40;99.90;;;;;;5052769;28;20252;-70
2021/12/20 03:42:42;;;;;;;27.37;8.33;;;1.50;99.90;;;;;;5047508;28;20185;-70
2021/12/20 03:45:08;;;;;;;28.30;8.83;;;1.40;99.90;;;;;;5052244;28;20448;-70
2021/12/20 03:47:34;;;;;;;24.57;8.83;;;1.40;99.90;;;;;;5046731;28;20459;-70
2021/12/20 03:50:00;;;;;;;24.73;6.97;;;1.40;99.90;;;;;;5054218;28;20497;-70
2021/12/20 03:52:25;;;;;;;20.80;8.57;;;1.40;99.90;;;;;;5047604;28;20186;-70
2021/12/20 03:54:51;;;;;;;18.13;7.80;;;1.40;99.90;;;;;;5047465;28;20571;-71
2021/12/20 03:57:17;;;;;;;26.63;10.03;;;1.40;99.90;;;;;;5048127;28;20193;-70
2021/12/20 03:59:47;;;;;;;17.83;8.80;;;1.40;99.90;;;;;;5048200;28;20190;-70
2021/12/20 04:02:16;;;;;;;19.67;8.13;;;1.40;99.90;;;;;;5049867;28;20182;-70
2021/12/20 04:04:41;;;;;;;18.13;7.13;;;1.40;99.90;;;;;;5051678;28;20459;-70
2021/12/20 04:07:07;;;;;;;21.20;8.00;;;1.50;99.90;;;;;;5047797;28;20873;-70
2021/12/20 04:09:33;;;;;;;25.83;8.23;;;1.40;99.90;;;;;;5048128;28;20202;-70
2021/12/20 04:11:58;;;;;;;23.77;8.10;;;1.40;99.90;;;;;;5047226;28;20303;-70
2021/12/20 04:14:24;;;;;;;16.43;8.10;;;1.40;99.90;;;;;;5048627;28;20181;-71
2021/12/20 04:16:50;;;;;;;22.73;9.17;;;1.40;99.90;;;;;;5047920;28;20634;-70
2021/12/20 04:19:15;;;;;;;17.17;7.73;;;1.40;99.90;;;;;;5048798;28;20180;-70
2021/12/20 04:21:41;;;;;;;17.40;7.83;;;1.40;99.90;;;;;;5047112;28;20190;-70
2021/12/20 04:24:07;;;;;;;19.10;8.47;;;1.40;99.90;;;;;;5048682;28;20201;-70
2021/12/20 04:26:32;;;;;;;17.10;8.53;;;1.40;99.90;;;;;;5042704;28;20202;-70
2021/12/20 04:28:58;;;;;;;19.33;8.60;;;1.40;99.90;;;;;;5052838;28;21067;-71
2021/12/20 04:31:24;;;;;;;25.90;9.13;;;1.40;99.90;;;;;;5046738;28;20224;-70
2021/12/20 04:33:50;;;;;;;25.20;8.90;;;1.40;99.90;;;;;;5046617;28;20767;-70
2021/12/20 04:36:15;;;;;;;19.90;8.23;;;1.40;99.90;;;;;;5048040;28;20227;-70
2021/12/20 04:38:43;;;;;;;27.17;8.80;;;1.40;99.90;;;;;;5046995;28;20181;-70
2021/12/20 04:41:09;;;;;;;16.73;6.57;;;1.40;99.90;;;;;;5046426;28;20186;-69
2021/12/20 04:43:35;;;;;;;17.87;8.27;;;1.40;99.90;;;;;;5046934;28;20420;-70
2021/12/20 04:46:02;;;;;;;21.20;8.50;;;1.40;99.90;;;;;;5046314;28;20430;-70
2021/12/20 04:48:28;;;;;;;24.77;8.63;;;1.40;99.90;;;;;;5046873;28;20201;-70
2021/12/20 04:50:53;;;;;;;18.40;7.30;;;1.40;99.90;;;;;;5046638;28;20463;-70
2021/12/20 04:53:19;;;;;;;21.53;8.10;;;1.40;99.90;;;;;;5047941;28;20197;-70
2021/12/20 04:55:45;;;;;;;27.70;9.23;;;1.40;99.90;;;;;;5046241;28;20186;-70
2021/12/20 04:58:11;;;;;;;23.60;9.20;;;1.40;99.90;;;;;;5048387;28;20209;-70
2021/12/20 05:00:37;;;;;;;26.10;9.27;;;1.40;99.90;;;;;;5046727;28;20252;-70
2021/12/20 05:03:04;;;;;;;26.60;8.90;;;1.40;99.90;;;;;;5051667;28;20462;-69
2021/12/20 05:05:30;;;;;;;20.17;8.07;;;1.40;99.90;;;;;;5049272;28;20439;-70
2021/12/20 05:07:56;;;;;;;31.50;9.20;;;1.40;99.90;;;;;;5046601;28;20467;-70
2021/12/20 05:10:28;;;;;;;23.90;8.43;;;1.40;99.90;;;;;;5050381;28;20232;-70
2021/12/20 05:12:56;;;;;;;18.33;7.73;;;1.40;99.90;;;;;;5050363;28;20634;-70
2021/12/20 05:15:22;;;;;;;21.53;7.63;;;1.40;99.90;;;;;;5051498;28;20424;-70
2021/12/20 05:17:48;;;;;;;22.87;6.87;;;1.40;99.90;;;;;;5055564;28;20539;-70
2021/12/20 05:20:14;;;;;;;23.73;8.00;;;1.40;99.90;;;;;;5055632;28;20995;-70
2021/12/20 05:22:40;;;;;;;19.20;9.33;;;1.40;99.90;;;;;;5052936;28;20523;-70
2021/12/20 05:25:06;;;;;;;23.87;7.40;;;1.40;99.90;;;;;;5056157;28;20212;-70
2021/12/20 05:27:31;;;;;;;20.20;7.47;;;1.40;99.90;;;;;;5049427;28;20295;-70
2021/12/20 05:29:59;;;;;;;26.27;10.00;;;1.40;99.90;;;;;;5050256;28;20186;-70
2021/12/20 05:32:25;;;;;;;18.57;8.00;;;1.40;99.90;;;;;;5043528;28;20184;-70
2021/12/20 05:34:50;;;;;;;16.60;5.83;;;1.40;99.90;;;;;;5049819;28;20435;-70
2021/12/20 05:37:16;;;;;;;23.27;9.13;;;1.40;99.90;;;;;;5053375;28;20177;-70
2021/12/20 05:39:43;;;;;;;18.60;7.07;;;1.40;99.90;;;;;;5054899;28;20218;-70
2021/12/20 05:42:08;;;;;;;16.30;7.80;;;1.40;99.90;;;;;;5053569;28;20181;-70
2021/12/20 05:44:35;;;;;;;32.40;7.77;;;1.40;99.90;;;;;;5051282;28;20435;-71
2021/12/20 05:47:01;;;;;;;21.43;7.20;;;1.30;99.90;;;;;;5052325;28;20201;-70
2021/12/20 05:49:26;;;;;;;21.50;7.77;;;1.40;99.90;;;;;;5051930;28;20424;-70
2021/12/20 05:51:52;;;;;;;25.10;9.10;;;1.40;99.90;;;;;;5059355;28;20204;-70
2021/12/20 05:54:18;;;;;;;25.03;8.87;;;1.40;99.90;;;;;;5058798;28;20188;-70
2021/12/20 05:56:43;;;;;;;16.33;7.40;;;1.40;99.90;;;;;;5048880;28;20217;-70
2021/12/20 05:59:09;;;;;;;14.10;7.57;;;1.30;99.90;;;;;;5050149;28;20190;-70
2021/12/20 06:01:35;;;;;;;14.57;6.47;;;1.30;99.90;;;;;;5056657;28;20745;-69
2021/12/20 06:04:00;;;;;;;17.53;7.27;;;1.30;99.90;;;;;;5049460;28;20253;-69
2021/12/20 06:06:31;;;;;;;21.27;6.63;;;1.30;99.90;;;;;;5048568;28;20284;-70
2021/12/20 06:08:57;;;;;;;17.93;8.30;;;1.30;99.90;;;;;;5049255;28;20208;-70
2021/12/20 06:11:24;;;;;;;12.40;5.70;;;1.30;99.90;;;;;;5054364;28;20416;-70
2021/12/20 06:13:50;;;;;;;20.67;8.80;;;1.30;99.90;;;;;;5054583;28;20852;-70
2021/12/20 06:16:16;;;;;;;19.33;7.53;;;1.30;99.90;;;;;;5047889;28;20578;-71
2021/12/20 06:18:42;;;;;;;15.97;7.43;;;1.30;99.90;;;;;;5053203;28;20506;-69
2021/12/20 06:21:08;;;;;;;17.23;7.27;;;1.30;99.90;;;;;;5054951;28;20323;-70
2021/12/20 06:23:33;;;;;;;17.90;6.43;;;1.40;99.90;;;;;;5049319;28;20225;-70
2021/12/20 06:25:59;;;;;;;13.13;5.73;;;1.30;99.90;;;;;;5053761;28;20192;-70
2021/12/20 06:28:25;;;;;;;14.80;5.77;;;1.40;99.90;;;;;;5050110;28;20995;-70
2021/12/20 06:30:50;;;;;;;19.23;6.50;;;1.30;99.90;;;;;;5050689;28;20637;-70
2021/12/20 06:33:16;;;;;;;13.70;6.30;;;1.30;99.90;;;;;;5049692;28;20288;-70
2021/12/20 06:35:42;;;;;;;22.17;7.47;;;1.30;99.90;;;;;;5050308;28;20239;-70
2021/12/20 06:38:09;;;;;;;13.70;6.80;;;1.30;99.90;;;;;;5051945;28;20213;-70
2021/12/20 06:40:36;;;;;;;16.43;6.80;;;1.30;99.90;;;;;;5051016;28;20189;-70
2021/12/20 06:43:03;;;;;;;14.00;6.10;;;1.40;99.90;;;;;;5049335;28;20440;-70
2021/12/20 06:45:29;;;;;;;15.30;7.40;;;1.30;99.90;;;;;;5047996;28;20443;-70
2021/12/20 06:47:55;;;;;;;19.30;7.33;;;1.30;99.90;;;;;;5048115;28;20491;-69
2021/12/20 06:50:21;;;;;;;13.30;6.43;;;1.40;99.90;;;;;;5052127;28;20481;-70
2021/12/20 06:52:47;;;;;;;19.83;7.90;;;1.40;99.90;;;;;;5052062;28;20428;-70
2021/12/20 06:55:12;;;;;;;16.13;5.70;;;1.40;99.90;;;;;;5047567;28;20184;-70
2021/12/20 06:57:39;;;;;;;20.27;6.50;;;1.40;99.90;;;;;;5053061;28;20189;-70
2021/12/20 07:00:05;;;;;;;15.30;6.10;;;1.40;99.90;;;;;;5055980;28;20245;-71
2021/12/20 07:02:31;;;;;;;20.30;7.33;;;1.40;99.90;;;;;;5052976;28;20428;-70
2021/12/20 07:04:57;;;;;;;18.63;8.50;;;1.40;99.90;;;;;;5046436;28;20433;-70
2021/12/20 07:07:22;;;;;;;15.97;6.80;;;1.40;99.90;;;;;;5044940;28;20670;-71
2021/12/20 07:09:48;;;;;;;13.50;7.33;;;1.40;99.90;;;;;;5053012;28;20181;-70
2021/12/20 07:12:14;;;;;;;16.63;7.07;;;1.40;99.90;;;;;;5047437;28;20682;-70
2021/12/20 07:14:40;;;;;;;13.80;6.50;;;1.40;99.90;;;;;;5047226;28;20189;-70
2021/12/20 07:17:06;;;;;;;16.87;7.83;;;1.40;99.90;;;;;;5048073;28;20190;-70
2021/12/20 07:19:32;;;;;;;21.97;8.70;;;1.40;99.90;;;;;;5047642;28;20518;-72
2021/12/20 07:21:57;;;;;;;16.77;8.03;;;1.40;99.90;;;;;;5047492;28;21111;-73
2021/12/20 07:24:24;;;;;;;20.60;9.60;;;1.40;99.90;;;;;;5049858;28;20246;-72
2021/12/20 07:26:49;;;;;;;24.60;9.00;;;1.40;99.90;;;;;;5040977;28;20532;-70
2021/12/20 07:29:18;;;;;;;18.77;7.37;;;1.40;99.90;;;;;;5053365;28;20435;-71
2021/12/20 07:31:45;;;;;;;16.50;8.00;;;1.40;99.90;;;;;;5050710;28;20276;-69
2021/12/20 07:34:11;;;;;;;20.80;8.43;;;1.40;99.90;;;;;;5051051;28;20455;-70
2021/12/20 07:36:37;;;;;;;23.80;8.40;;;1.40;99.90;;;;;;5045328;28;20437;-70
2021/12/20 07:39:05;;;;;;;17.50;7.30;;;1.40;99.90;;;;;;5046991;28;20196;-70
2021/12/20 07:41:30;;;;;;;17.60;7.70;;;1.40;99.90;;;;;;5046630;28;20988;-71
2021/12/20 07:43:56;;;;;;;13.87;6.33;;;1.40;99.90;;;;;;5047856;28;20442;-70
2021/12/20 07:46:21;;;;;;;19.17;8.10;;;1.50;99.90;;;;;;5046437;28;20209;-70
2021/12/20 07:48:49;;;;;;;15.80;7.23;;;1.40;99.90;;;;;;5047979;28;20896;-70
2021/12/20 07:51:15;;;;;;;23.27;7.30;;;1.40;99.90;;;;;;5047398;28;20174;-70
2021/12/20 07:53:41;;;;;;;17.73;6.43;;;1.40;99.90;;;;;;5048710;28;20442;-70
2021/12/20 07:56:07;;;;;;;13.70;6.37;;;1.50;99.90;;;;;;5047306;28;20425;-70
2021/12/20 07:58:33;;;;;;;15.13;8.40;;;1.50;99.90;;;;;;5047512;28;20420;-70
2021/12/20 08:01:01;;;;;;;24.30;6.90;;;1.50;99.90;;;;;;5049222;28;20446;-70
2021/12/20 08:03:27;;;;;;;20.57;8.47;;;1.50;99.90;;;;;;5048385;28;20432;-70
2021/12/20 08:05:53;;;;;;;18.37;7.20;;;1.60;99.90;;;;;;5046259;28;20535;-70
2021/12/20 08:08:19;;;;;;;16.83;7.30;;;1.60;99.90;;;;;;5047198;28;20545;-70
2021/12/20 08:10:45;;;;;;;17.33;7.43;;;1.60;99.90;;;;;;5053481;28;20268;-70
2021/12/20 08:13:12;;;;;;;12.47;6.70;;;1.60;99.90;;;;;;5046754;28;20204;-70
2021/12/20 08:15:39;;;;;;;14.47;7.47;;;1.70;99.90;;;;;;5043842;28;20436;-70
2021/12/20 08:18:06;;;;;;;20.47;7.27;;;1.70;99.90;;;;;;5046400;28;20428;-70
2021/12/20 08:20:32;;;;;;;12.03;6.70;;;1.70;99.90;;;;;;5046424;28;20447;-70
2021/12/20 08:22:58;;;;;;;17.23;7.90;;;1.70;99.90;;;;;;5045147;28;20432;-70
2021/12/20 08:25:24;;;;;;;15.23;7.60;;;1.80;99.90;;;;;;5045650;28;20439;-70
2021/12/20 08:27:50;;;;;;;13.43;6.60;;;1.80;99.90;;;;;;5047652;28;20211;-70
2021/12/20 08:30:17;;;;;;;17.47;6.83;;;1.80;99.90;;;;;;5045845;28;20470;-71
2021/12/20 08:32:44;;;;;;;23.30;7.43;;;1.80;99.90;;;;;;5045572;28;20490;-70
2021/12/20 08:35:11;;;;;;;18.17;6.80;;;1.80;99.90;;;;;;5045542;28;20431;-70
2021/12/20 08:37:38;;;;;;;17.37;7.17;;;1.90;99.90;;;;;;5048531;28;20431;-70
2021/12/20 08:40:06;;;;;;;18.47;7.10;;;1.80;99.90;;;;;;5050851;28;20428;-70
2021/12/20 08:42:32;;;;;;;12.00;5.40;;;1.90;99.90;;;;;;5046214;28;20468;-70
2021/12/20 08:44:57;;;;;;;17.50;7.73;;;1.90;99.90;;;;;;5048604;28;20479;-70
2021/12/20 08:47:23;;;;;;;11.87;5.50;;;1.90;99.90;;;;;;5045536;28;20206;-70
2021/12/20 08:49:49;;;;;;;10.83;5.70;;;2.00;99.90;;;;;;5047631;28;20185;-70
2021/12/20 08:52:15;;;;;;;14.27;6.45;;;2.00;99.90;;;;;;5050355;28;20883;-70
2021/12/20 08:54:42;;;;;;;23.10;7.97;;;1.90;99.90;;;;;;5054682;28;20212;-70
2021/12/20 08:57:08;;;;;;;12.47;6.03;;;2.00;99.90;;;;;;5055967;28;20462;-69
2021/12/20 08:59:34;;;;;;;18.47;7.40;;;2.20;99.90;;;;;;5055694;28;20456;-70
2021/12/20 09:02:00;;;;;;;17.60;7.80;;;2.00;99.90;;;;;;5056033;28;20428;-70
2021/12/20 09:04:26;;;;;;;12.83;6.17;;;2.10;99.90;;;;;;5054353;28;20438;-70
2021/12/20 09:06:52;;;;;;;28.10;7.10;;;2.10;99.90;;;;;;5054010;28;20471;-70
2021/12/20 09:09:18;;;;;;;16.03;7.90;;;2.10;99.90;;;;;;5054010;28;20431;-70
2021/12/20 09:11:45;;;;;;;12.07;7.00;;;2.10;99.90;;;;;;5055111;28;20576;-70
2021/12/20 09:14:13;;;;;;;14.83;7.10;;;2.20;99.90;;;;;;5050528;28;20754;-70
2021/12/20 09:16:39;;;;;;;14.80;7.20;;;2.20;99.90;;;;;;5055343;28;20436;-70
2021/12/20 09:19:05;;;;;;;18.17;8.50;;;2.30;99.90;;;;;;5054253;28;20980;-70
2021/12/20 09:21:31;;;;;;;25.97;7.53;;;2.40;99.90;;;;;;5051429;28;21006;-70
2021/12/20 09:23:57;;;;;;;17.10;8.40;;;2.40;99.90;;;;;;5052652;28;20451;-70
2021/12/20 09:26:22;;;;;;;29.67;8.53;;;2.50;99.90;;;;;;5049269;28;20206;-70
2021/12/20 09:28:48;;;;;;;13.83;7.20;;;2.50;99.90;;;;;;5050120;28;21133;-70
2021/12/20 09:31:14;;;;;;;21.20;8.03;;;2.50;99.90;;;;;;5049062;28;20194;-70
2021/12/20 09:33:40;;;;;;;15.70;7.17;;;2.60;99.90;;;;;;5051951;28;20289;-71
2021/12/20 09:36:06;;;;;;;13.50;6.70;;;2.50;99.90;;;;;;5046109;28;20936;-70
2021/12/20 09:38:32;;;;;;;15.33;7.43;;;2.60;99.90;;;;;;5049500;28;20197;-70
2021/12/20 09:43:46;;;;;;;14.17;5.77;;;2.60;99.90;;;;;;5052267;28;20484;-71
2021/12/20 09:46:12;;;;;;;13.07;6.43;;;2.60;99.90;;;;;;5051251;28;20803;-70
2021/12/20 09:48:38;;;;;;;15.63;6.67;;;2.60;99.90;;;;;;5052988;28;20432;-71
2021/12/20 09:51:05;;;;;;;17.80;8.00;;;2.60;99.90;;;;;;5053000;28;20424;-70
2021/12/20 09:53:31;;;;;;;15.70;7.07;;;2.60;99.90;;;;;;5049597;28;20225;-70
2021/12/20 09:55:59;;;;;;;21.53;7.40;;;2.60;99.90;;;;;;5048364;28;20441;-70
2021/12/20 09:58:27;;;;;;;13.53;5.63;;;2.60;99.90;;;;;;5052867;28;20473;-71
2021/12/20 10:00:53;;;;;;;16.63;6.70;;;2.60;99.90;;;;;;5052660;28;20479;-70
2021/12/20 10:03:21;;;;;;;17.83;7.27;;;2.60;99.90;;;;;;5052961;28;20477;-70
2021/12/20 10:05:47;;;;;;;17.97;7.30;;;2.60;99.90;;;;;;5048876;28;20436;-70
2021/12/20 10:08:16;;;;;;;31.17;9.70;;;2.60;99.90;;;;;;5053545;28;20480;-70
2021/12/20 10:10:44;;;;;;;18.93;7.60;;;2.70;99.90;;;;;;5053584;28;20440;-70
2021/12/20 10:13:32;;;;;;;22.73;7.10;;;2.70;99.90;;;;;;5048805;28;20440;-70
2021/12/20 10:15:59;;;;;;;19.80;7.30;;;2.80;99.90;;;;;;5051107;28;20420;-70
2021/12/20 10:18:26;;;;;;;21.93;8.23;;;2.80;99.90;;;;;;5048684;28;20446;-71
2021/12/20 10:20:55;;;;;;;22.13;8.37;;;2.80;99.90;;;;;;5049176;28;21253;-70
2021/12/20 10:23:26;;;;;;;19.83;9.43;;;3.00;99.90;;;;;;5053376;28;20437;-70
2021/12/20 10:26:09;;;;;;;21.03;8.50;;;2.90;99.90;;;;;;5049307;28;20428;-70
2021/12/20 10:28:37;;;;;;;33.17;10.47;;;3.00;99.90;;;;;;5051549;28;20439;-70
2021/12/20 10:31:18;;;;;;;24.57;9.70;;;3.00;99.90;;;;;;5055439;28;20453;-70
2021/12/20 10:34:03;;;;;;;27.80;10.17;;;3.10;99.90;;;;;;5054198;28;20526;-70
2021/12/20 10:36:32;;;;;;;27.90;9.83;;;3.10;99.90;;;;;;5049701;28;20448;-69
2021/12/20 10:38:59;;;;;;;28.17;9.40;;;3.20;99.90;;;;;;5048761;28;20800;-70
2021/12/20 10:41:35;;;;;;;21.90;10.23;;;3.20;99.90;;;;;;5055250;28;20546;-70
2021/12/20 10:44:13;;;;;;;27.87;10.53;;;3.30;99.90;;;;;;5052645;28;20485;-71
2021/12/20 10:46:56;;;;;;;22.00;9.47;;;3.40;99.90;;;;;;5053620;28;20494;-71
2021/12/20 10:49:30;;;;;;;26.67;11.33;;;3.40;99.90;;;;;;5053361;28;20424;-71
2021/12/20 10:51:56;;;;;;;31.57;10.07;;;3.40;99.90;;;;;;5053595;28;20423;-71
2021/12/20 10:54:29;;;;;;;20.63;8.87;;;3.50;99.90;;;;;;5053638;28;20420;-70
2021/12/20 10:56:57;;;;;;;23.60;10.10;;;3.50;99.90;;;;;;5047718;28;20917;-72
2021/12/20 10:59:25;;;;;;;29.93;11.17;;;3.50;99.90;;;;;;5048223;28;20439;-70
2021/12/20 11:04:31;;;;;;;22.33;9.13;;;3.60;99.90;;;;;;5050361;28;20428;-70
2021/12/20 11:09:37;;;;;;;19.70;9.70;;;3.70;99.90;;;;;;5050334;28;20435;-70
2021/12/20 11:12:09;;;;;;;17.80;7.80;;;3.80;99.90;;;;;;5051115;28;20452;-70
2021/12/20 11:14:40;;;;;;;19.90;8.30;;;3.80;99.90;;;;;;5048415;28;20455;-70
2021/12/20 11:17:09;;;;;;;22.23;8.80;;;3.90;99.90;;;;;;5047009;28;20479;-70
2021/12/20 11:19:43;;;;;;;17.90;6.57;;;3.80;99.90;;;;;;5047555;28;20420;-70
2021/12/20 11:22:14;;;;;;;22.70;7.80;;;3.80;99.90;;;;;;5051280;28;21063;-71
2021/12/20 11:24:49;;;;;;;18.77;7.20;;;3.80;99.90;;;;;;5047706;28;20427;-70
2021/12/20 11:27:32;;;;;;;20.00;7.70;;;3.80;99.90;;;;;;5052940;28;20558;-71
2021/12/20 11:30:08;;;;;;;14.33;7.23;;;3.90;99.90;;;;;;5047667;28;20471;-71
2021/12/20 11:32:34;;;;;;;23.70;7.73;;;4.00;99.90;;;;;;5047201;28;21180;-70
2021/12/20 11:35:00;;;;;;;17.00;6.70;;;3.90;99.90;;;;;;5047879;28;20439;-70
2021/12/20 11:37:28;;;;;;;11.30;5.70;;;3.80;99.90;;;;;;5048448;28;20427;-70
2021/12/20 11:39:55;;;;;;;11.47;5.07;;;3.80;99.90;;;;;;5042974;28;20205;-70
2021/12/20 11:42:21;;;;;;;15.17;6.43;;;3.80;99.90;;;;;;5048440;28;20443;-71
2021/12/20 11:44:49;;;;;;;12.60;5.90;;;3.70;99.90;;;;;;5048819;28;20510;-71
2021/12/20 11:47:51;;;;;;;15.80;7.20;;;3.60;99.90;;;;;;5048947;28;20578;-70
2021/12/20 11:50:21;;;;;;;14.67;6.27;;;3.50;99.90;;;;;;4982073;28;20943;-70
2021/12/20 11:52:49;;;;;;;21.20;5.77;;;3.40;99.90;;;;;;5038709;28;20811;-70
2021/12/20 11:55:16;;;;;;;15.13;5.07;;;3.40;99.90;;;;;;5045089;28;21208;-70
2021/12/20 11:57:44;;;;;;;11.47;5.17;;;3.30;99.90;;;;;;5049761;28;20943;-70
2021/12/20 12:00:31;;;;;;;7.37;4.37;;;3.40;99.90;;;;;;5050021;28;20435;-70
2021/12/20 12:03:06;;;;;;;8.47;4.33;;;3.50;99.90;;;;;;5046124;28;20431;-70
2021/12/20 12:05:47;;;;;;;8.40;3.67;;;3.40;99.90;;;;;;5049370;28;21048;-70
2021/12/20 12:08:30;;;;;;;12.47;4.80;;;3.40;99.90;;;;;;5047172;28;20471;-70
2021/12/20 12:11:07;;;;;;;15.37;3.90;;;3.60;99.90;;;;;;5042821;28;20425;-70
2021/12/20 12:13:49;;;;;;;13.40;4.30;;;3.90;99.90;;;;;;5045850;28;20927;-70
2021/12/20 12:16:30;;;;;;;15.70;5.90;;;4.20;99.90;;;;;;5048478;28;20430;-70
2021/12/20 12:18:58;;;;;;;9.87;4.17;;;4.50;99.90;;;;;;5048385;28;20789;-70
2021/12/20 12:21:33;;;;;;;8.70;4.07;;;4.70;99.90;;;;;;5051274;28;20452;-72
2021/12/20 12:24:14;;;;;;;9.80;3.67;;;5.10;99.90;;;;;;5050920;28;20549;-71
2021/12/20 12:26:47;;;;;;;17.37;5.73;;;5.30;99.90;;;;;;5052799;28;20474;-71
2021/12/20 12:29:22;;;;;;;14.67;4.50;;;5.50;99.90;;;;;;5051009;28;20865;-71
2021/12/20 12:32:01;;;;;;;8.67;3.83;;;5.40;99.90;;;;;;5056958;28;20525;-71
2021/12/20 12:34:38;;;;;;;11.20;5.50;;;5.30;99.90;;;;;;5054658;28;20435;-71
2021/12/20 12:37:19;;;;;;;11.60;4.43;;;5.40;99.90;;;;;;5050802;28;20431;-70
2021/12/20 12:39:45;;;;;;;23.57;5.53;;;5.40;99.90;;;;;;5050514;28;20504;-71
2021/12/20 12:42:12;;;;;;;10.30;4.40;;;5.40;99.90;;;;;;5037428;28;20428;-71
2021/12/20 12:44:49;;;;;;;14.50;4.33;;;5.30;99.90;;;;;;5054886;28;20197;-70
2021/12/20 12:47:15;;;;;;;11.83;4.70;;;5.00;99.90;;;;;;5051590;28;20494;-70
2021/12/20 12:49:50;;;;;;;10.83;4.90;;;4.90;99.90;;;;;;5050367;28;21212;-70
2021/12/20 12:52:19;;;;;;;11.63;4.20;;;4.90;99.90;;;;;;5058367;28;20414;-70
2021/12/20 12:54:55;;;;;;;14.37;5.53;;;4.80;99.90;;;;;;5050381;28;20420;-70
2021/12/20 12:57:20;;;;;;;14.17;5.63;;;4.80;99.90;;;;;;5043031;28;20458;-70
2021/12/20 12:59:56;;;;;;;12.07;4.60;;;4.90;99.90;;;;;;5047824;28;20439;-70
2021/12/20 13:02:30;;;;;;;12.20;5.03;;;4.90;99.90;;;;;;5049012;28;20240;-70
2021/12/20 13:04:59;;;;;;;11.00;4.60;;;4.80;99.90;;;;;;5045712;28;20482;-70
2021/12/20 13:07:28;;;;;;;10.40;4.63;;;4.80;99.90;;;;;;5051222;28;20490;-71
2021/12/20 13:09:58;;;;;;;16.83;4.53;;;4.80;99.90;;;;;;5048713;28;20543;-70
2021/12/20 13:12:34;;;;;;;8.37;3.70;;;4.90;99.90;;;;;;5049599;28;20451;-70